Weber City, Virginia
Current Conditions -  °F | °C
As of 9:53 PM on Wednesday 22 Oct 2014 (Local Time) from KTRI Reporting Station
Overcast Overcast  
Wind Chill: 45°   Ceiling: 3600
Heat Index: 48°   Visibility: 10mi
Dew Point: 41°   Wind: 6mph
Humidity: 77%   Direction: 330°NNW
Pressure: 30.21"   Gusts: NA
Location:  36.62°N, 82.56°W
Report Text: KTRI 230153Z 33005KT 10SM FEW025 OVC036 09/05 A3021 RMK AO2 SLP220 T00890050
Loading
Personal Weather Stations






























Interactive Weather Map
Tropical Storm Tracking
New forecast layout! Learn more

10-Day Weather Forecast

Advertisements
Track Severe Weather on mobile